Time;durP1;ratioP1;P1;durP2;ratioP2;P2;SDS_P1;SDS_P2;PMS_P1;PMS_P2;Temp;Humidity;BMP_temperature;BMP_pressure;BME280_temperature;BME280_humidity;BME280_pressure;Samples;Min_cycle;Max_cycle;Signal;HPM_P1;HPM_P2
2023/01/21 00:02:17;;;;;;;94.38;43.38;;;-1.10;99.90;;;;;;5029979;28;20110;-62
2023/01/21 00:04:43;;;;;;;89.40;41.83;;;-1.10;99.90;;;;;;5028414;28;20526;-62
2023/01/21 00:07:09;;;;;;;89.18;42.60;;;-1.20;99.90;;;;;;4995078;28;20052;-63
2023/01/21 00:09:35;;;;;;;92.43;43.05;;;-1.30;99.90;;;;;;5029170;28;20037;-62
2023/01/21 00:12:02;;;;;;;100.03;44.58;;;-1.20;99.90;;;;;;5011339;28;20045;-63
2023/01/21 00:14:28;;;;;;;99.20;43.92;;;-1.30;99.90;;;;;;5028749;28;20548;-62
2023/01/21 00:16:54;;;;;;;92.88;42.17;;;-1.30;99.90;;;;;;4994877;28;20047;-63
2023/01/21 00:19:20;;;;;;;94.38;42.58;;;-1.50;99.90;;;;;;4993073;28;20442;-63
2023/01/21 00:21:46;;;;;;;88.75;41.28;;;-1.50;99.90;;;;;;5029316;28;20047;-63
2023/01/21 00:24:12;;;;;;;98.13;43.08;;;-1.50;99.90;;;;;;5011333;28;20037;-63
2023/01/21 00:26:37;;;;;;;99.13;43.47;;;-1.60;99.90;;;;;;4993687;28;20049;-63
2023/01/21 00:29:03;;;;;;;98.20;42.28;;;-1.70;99.90;;;;;;5010922;28;20040;-63
2023/01/21 00:31:29;;;;;;;95.13;43.60;;;-1.60;99.90;;;;;;5028987;28;20747;-63
2023/01/21 00:33:54;;;;;;;107.20;44.20;;;-1.70;99.90;;;;;;5010338;28;20239;-63
2023/01/21 00:36:23;;;;;;;97.22;42.75;;;-1.60;99.90;;;;;;5029458;28;20079;-63
2023/01/21 00:38:49;;;;;;;97.18;42.92;;;-1.70;99.90;;;;;;5028403;28;20146;-62
2023/01/21 00:41:16;;;;;;;104.13;44.65;;;-1.80;99.90;;;;;;5011163;28;20053;-63
2023/01/21 00:43:42;;;;;;;104.65;45.75;;;-1.80;99.90;;;;;;4994142;28;20072;-63
2023/01/21 00:46:09;;;;;;;110.13;45.45;;;-1.90;99.90;;;;;;5010127;28;20033;-62
2023/01/21 00:48:35;;;;;;;106.32;44.97;;;-1.90;99.90;;;;;;5010797;28;20385;-62
2023/01/21 00:51:02;;;;;;;114.20;47.70;;;-1.90;99.90;;;;;;5011268;28;20528;-62
2023/01/21 00:53:30;;;;;;;112.03;46.00;;;-1.90;99.90;;;;;;5027828;28;20677;-65
2023/01/21 00:56:04;;;;;;;106.60;44.17;;;-1.90;99.90;;;;;;5010529;28;20044;-63
2023/01/21 00:58:30;;;;;;;104.43;44.38;;;-1.90;99.90;;;;;;5032422;28;20044;-63
2023/01/21 01:01:10;;;;;;;104.72;43.70;;;-2.00;99.90;;;;;;5014632;28;20304;-63
2023/01/21 01:03:37;;;;;;;111.57;45.42;;;-2.00;99.90;;;;;;5014712;28;20459;-63
2023/01/21 01:06:10;;;;;;;115.95;45.67;;;-2.00;99.90;;;;;;5013756;28;20037;-64
2023/01/21 01:08:36;;;;;;;114.30;44.45;;;-2.10;99.90;;;;;;5032228;28;20045;-63
2023/01/21 01:11:03;;;;;;;121.82;47.53;;;-2.10;99.90;;;;;;5001424;28;20442;-63
2023/01/21 01:13:29;;;;;;;122.22;47.38;;;-2.20;99.90;;;;;;5032102;28;20132;-63
2023/01/21 01:15:57;;;;;;;125.57;47.20;;;-2.20;99.90;;;;;;5015233;28;20048;-63
2023/01/21 01:18:23;;;;;;;104.63;43.90;;;-2.20;99.90;;;;;;5036197;28;20458;-63
2023/01/21 01:20:49;;;;;;;113.40;46.00;;;-2.30;99.90;;;;;;5012848;28;20607;-64
2023/01/21 01:23:15;;;;;;;116.32;46.17;;;-2.20;99.90;;;;;;4981532;28;20044;-63
2023/01/21 01:25:41;;;;;;;126.60;46.05;;;-2.30;99.90;;;;;;5013174;28;20079;-62
2023/01/21 01:28:06;;;;;;;121.53;45.63;;;-2.30;99.90;;;;;;4996934;28;20195;-62
2023/01/21 01:30:34;;;;;;;140.23;53.60;;;-2.30;99.90;;;;;;5013518;28;20041;-63
2023/01/21 01:33:00;;;;;;;141.25;52.47;;;-2.20;99.90;;;;;;4997160;28;20392;-63
2023/01/21 01:35:27;;;;;;;137.38;50.92;;;-2.20;99.90;;;;;;5012891;28;20134;-62
2023/01/21 01:37:53;;;;;;;135.00;51.13;;;-2.10;99.90;;;;;;5013715;28;20045;-64
2023/01/21 01:40:18;;;;;;;131.32;49.90;;;-2.20;99.90;;;;;;5031582;28;20071;-64
2023/01/21 01:42:44;;;;;;;123.55;50.70;;;-2.10;99.90;;;;;;5032394;28;20041;-66
2023/01/21 01:45:13;;;;;;;127.95;50.25;;;-2.20;99.90;;;;;;4996274;28;20402;-65
2023/01/21 01:47:49;;;;;;;126.68;49.67;;;-2.20;99.90;;;;;;5014121;28;20040;-65
2023/01/21 01:50:18;;;;;;;127.78;49.35;;;-2.20;99.90;;;;;;5013149;28;20036;-64
2023/01/21 01:52:45;;;;;;;130.77;50.17;;;-2.10;99.90;;;;;;5013041;28;20048;-64
2023/01/21 01:55:14;;;;;;;129.00;48.13;;;-2.10;99.90;;;;;;4996927;28;20032;-64
2023/01/21 01:57:45;;;;;;;136.02;49.50;;;-2.10;99.90;;;;;;5013016;28;20503;-65
2023/01/21 02:00:12;;;;;;;130.60;48.58;;;-2.00;99.90;;;;;;5030958;28;20517;-64
2023/01/21 02:02:39;;;;;;;135.35;50.63;;;-2.10;99.90;;;;;;5012896;28;20033;-64
2023/01/21 02:05:07;;;;;;;154.48;54.13;;;-2.10;99.90;;;;;;5028777;28;20079;-64
2023/01/21 02:07:43;;;;;;;149.68;51.45;;;-2.10;99.90;;;;;;5013934;28;20028;-64
2023/01/21 02:10:12;;;;;;;154.48;52.65;;;-2.20;99.90;;;;;;5012450;28;20523;-65
2023/01/21 02:12:40;;;;;;;152.38;51.58;;;-2.10;99.90;;;;;;4997142;28;20048;-64
2023/01/21 02:15:07;;;;;;;158.68;53.40;;;-2.00;99.90;;;;;;4995840;28;20044;-63
2023/01/21 02:17:54;;;;;;;157.07;52.83;;;-2.10;99.90;;;;;;5031717;28;20128;-64
2023/01/21 02:20:35;;;;;;;166.32;52.63;;;-2.10;99.90;;;;;;5013078;28;20041;-63
2023/01/21 02:23:41;;;;;;;158.55;53.13;;;-2.20;99.90;;;;;;5000295;28;20116;-64
2023/01/21 02:26:10;;;;;;;132.43;47.60;;;-2.30;99.90;;;;;;5031647;28;20041;-63
2023/01/21 02:28:38;;;;;;;127.40;46.72;;;-2.20;99.90;;;;;;5031688;28;20078;-63
2023/01/21 02:31:35;;;;;;;146.07;49.25;;;-2.30;99.90;;;;;;4996480;28;20269;-63
2023/01/21 02:34:42;;;;;;;135.45;46.22;;;-2.40;99.90;;;;;;5030032;28;20056;-63
2023/01/21 02:37:41;;;;;;;139.80;48.95;;;-2.40;99.90;;;;;;4972473;28;20040;-62
2023/01/21 02:40:53;;;;;;;136.85;46.88;;;-2.40;99.90;;;;;;5035635;28;20127;-63
2023/01/21 02:43:42;;;;;;;154.90;47.05;;;-2.40;99.90;;;;;;4897150;29;20032;-64
2023/01/21 02:46:20;;;;;;;135.63;46.63;;;-2.40;99.90;;;;;;5006565;28;20111;-63
2023/01/21 02:49:14;;;;;;;132.65;45.83;;;-2.50;99.90;;;;;;5012220;28;20045;-63
2023/01/21 02:51:45;;;;;;;147.35;48.33;;;-2.40;99.90;;;;;;5030247;28;20049;-63
2023/01/21 02:54:39;;;;;;;139.23;48.05;;;-2.40;99.90;;;;;;5030138;28;20029;-64
2023/01/21 02:57:15;;;;;;;141.63;47.05;;;-2.50;99.90;;;;;;5013722;28;20113;-63
2023/01/21 02:59:45;;;;;;;133.43;47.45;;;-2.40;99.90;;;;;;5029791;28;20467;-63
2023/01/21 03:02:49;;;;;;;133.95;46.80;;;-2.50;99.90;;;;;;5011304;28;20110;-64
2023/01/21 03:05:59;;;;;;;130.32;47.58;;;-2.50;99.90;;;;;;5013110;28;20179;-63
2023/01/21 03:09:14;;;;;;;137.73;47.67;;;-2.50;99.90;;;;;;4996274;28;20580;-63
2023/01/21 03:11:47;;;;;;;142.90;48.03;;;-2.70;99.90;;;;;;4994646;28;20079;-65
2023/01/21 03:17:18;;;;;;;135.77;47.15;;;-2.70;99.90;;;;;;5029492;28;20474;-63
2023/01/21 03:20:01;;;;;;;151.70;47.88;;;-2.60;99.90;;;;;;5011531;28;20569;-63
2023/01/21 03:22:31;;;;;;;142.30;46.00;;;-2.60;99.90;;;;;;5011983;28;20115;-63
2023/01/21 03:24:58;;;;;;;140.43;49.92;;;-2.50;99.90;;;;;;4998105;28;21059;-63
2023/01/21 03:27:26;;;;;;;137.65;48.60;;;-2.50;99.90;;;;;;5032158;28;20051;-65
2023/01/21 03:29:58;;;;;;;139.90;47.40;;;-2.30;99.90;;;;;;5013413;28;20048;-64
2023/01/21 03:32:26;;;;;;;153.23;49.05;;;-2.30;99.90;;;;;;5030197;28;20040;-64
2023/01/21 03:34:54;;;;;;;145.60;47.80;;;-2.10;99.90;;;;;;5030504;28;20098;-63
2023/01/21 03:37:41;;;;;;;149.38;48.80;;;-2.20;99.90;;;;;;4999837;28;20044;-63
2023/01/21 03:40:18;;;;;;;141.18;47.80;;;-2.10;99.90;;;;;;5034596;28;20114;-65
2023/01/21 03:42:46;;;;;;;140.27;47.60;;;-2.10;99.90;;;;;;5010227;28;20055;-64
2023/01/21 03:45:13;;;;;;;143.98;48.50;;;-2.10;99.90;;;;;;4996305;28;20055;-64
2023/01/21 03:47:43;;;;;;;150.00;48.10;;;-2.30;99.90;;;;;;5011594;28;20079;-65
2023/01/21 03:50:15;;;;;;;153.38;49.42;;;-2.10;99.90;;;;;;5012966;28;20266;-63
2023/01/21 03:52:42;;;;;;;151.00;48.92;;;-2.20;99.90;;;;;;5012282;28;20041;-64
2023/01/21 03:55:10;;;;;;;160.73;50.90;;;-2.30;99.90;;;;;;4982729;28;20041;-64
2023/01/21 03:57:35;;;;;;;161.85;51.42;;;-2.20;99.90;;;;;;5012144;28;20509;-64
2023/01/21 04:00:02;;;;;;;157.52;48.05;;;-2.10;99.90;;;;;;5012923;28;20125;-64
2023/01/21 04:02:28;;;;;;;168.75;50.42;;;-2.10;1.00;;;;;;4996320;28;20037;-64
2023/01/21 04:04:54;;;;;;;147.00;47.97;;;-2.00;1.00;;;;;;5011225;28;20370;-64
2023/01/21 04:07:20;;;;;;;149.77;50.40;;;-2.00;1.00;;;;;;5029714;28;20157;-65
2023/01/21 04:09:45;;;;;;;146.50;48.88;;;-2.00;1.00;;;;;;5029728;28;20041;-65
2023/01/21 04:12:11;;;;;;;157.38;50.08;;;-1.90;1.00;;;;;;5011700;28;20368;-63
2023/01/21 04:14:37;;;;;;;153.05;49.00;;;-1.90;1.00;;;;;;5011560;28;20106;-63
2023/01/21 04:17:03;;;;;;;148.18;48.47;;;-1.90;1.00;;;;;;5011318;28;20121;-64
2023/01/21 04:19:29;;;;;;;146.65;48.70;;;-1.80;1.00;;;;;;5009910;28;20070;-63
2023/01/21 04:21:54;;;;;;;149.38;49.55;;;-1.60;1.00;;;;;;5028859;28;20073;-64
2023/01/21 04:24:20;;;;;;;146.50;49.15;;;-1.60;1.00;;;;;;5011469;28;20037;-64
2023/01/21 04:26:46;;;;;;;152.05;49.20;;;-1.60;1.00;;;;;;4993971;28;20041;-64
2023/01/21 04:29:12;;;;;;;139.30;48.35;;;-1.50;1.00;;;;;;4995276;28;20045;-64
2023/01/21 04:31:37;;;;;;;149.25;48.40;;;-1.60;1.00;;;;;;4996803;28;20047;-63
2023/01/21 04:34:03;;;;;;;147.25;50.33;;;-1.50;1.00;;;;;;4999554;28;20056;-65
2023/01/21 04:36:29;;;;;;;146.00;49.33;;;-1.50;1.00;;;;;;5035531;28;20101;-64
2023/01/21 04:38:54;;;;;;;151.02;51.10;;;-1.50;1.00;;;;;;5000821;28;20049;-64
2023/01/21 04:41:20;;;;;;;144.88;48.30;;;-1.60;1.00;;;;;;5035001;28;20591;-64
2023/01/21 04:43:46;;;;;;;150.85;49.83;;;-1.50;1.00;;;;;;5000990;28;20044;-64
2023/01/21 04:46:11;;;;;;;146.88;50.15;;;-1.50;1.00;;;;;;5036289;28;20714;-65
2023/01/21 04:48:37;;;;;;;142.43;48.13;;;-1.50;1.00;;;;;;5035225;28;20534;-63
2023/01/21 04:51:05;;;;;;;138.48;49.42;;;-1.60;1.00;;;;;;5035385;28;20073;-63
2023/01/21 04:53:31;;;;;;;145.90;49.53;;;-1.60;1.00;;;;;;5017766;28;20047;-64
2023/01/21 04:55:56;;;;;;;133.88;49.33;;;-1.70;1.00;;;;;;5021576;28;20045;-64
2023/01/21 04:58:22;;;;;;;151.85;49.97;;;-1.60;1.00;;;;;;5040286;28;20041;-63
2023/01/21 05:00:49;;;;;;;148.30;49.25;;;-1.70;1.00;;;;;;5024345;28;20106;-63
2023/01/21 05:03:15;;;;;;;146.30;49.92;;;-1.80;1.00;;;;;;5023135;28;20235;-63
2023/01/21 05:05:41;;;;;;;162.40;49.15;;;-1.80;1.00;;;;;;5039143;28;20037;-63
2023/01/21 05:08:07;;;;;;;147.45;48.45;;;-1.90;1.00;;;;;;5023087;28;20040;-61
2023/01/21 05:10:32;;;;;;;154.07;48.78;;;-1.90;1.00;;;;;;5039330;28;20080;-63
2023/01/21 05:12:58;;;;;;;151.38;47.45;;;-2.00;1.00;;;;;;5022577;28;20091;-63
2023/01/21 05:15:24;;;;;;;155.23;50.70;;;-2.10;1.00;;;;;;5040389;28;20052;-62
2023/01/21 05:17:49;;;;;;;158.18;51.38;;;-2.20;1.00;;;;;;5040379;28;20328;-63
2023/01/21 05:20:15;;;;;;;152.07;51.05;;;-2.30;1.00;;;;;;5041791;28;20568;-63
2023/01/21 05:22:45;;;;;;;155.27;52.55;;;-2.10;1.00;;;;;;5041307;28;20529;-63
2023/01/21 05:25:11;;;;;;;175.52;55.35;;;-2.20;1.00;;;;;;5022726;28;20045;-63
2023/01/21 05:27:37;;;;;;;168.23;54.08;;;-2.30;1.00;;;;;;5040784;28;20494;-63
2023/01/21 05:30:03;;;;;;;149.43;49.95;;;-2.40;1.00;;;;;;5023516;28;20107;-64
2023/01/21 05:32:28;;;;;;;153.70;51.17;;;-2.50;1.00;;;;;;5040765;28;20367;-63
2023/01/21 05:34:54;;;;;;;158.27;52.10;;;-2.40;1.00;;;;;;5040504;28;20068;-63
2023/01/21 05:37:20;;;;;;;149.10;52.45;;;-2.50;1.00;;;;;;5021846;28;20139;-63
2023/01/21 05:39:45;;;;;;;158.18;53.03;;;-2.50;1.00;;;;;;5023068;28;20037;-63
2023/01/21 05:42:11;;;;;;;166.95;55.22;;;-2.60;1.00;;;;;;5022020;28;20118;-63
2023/01/21 05:44:37;;;;;;;154.35;54.28;;;-2.60;1.00;;;;;;5020526;28;20467;-63
2023/01/21 05:47:02;;;;;;;168.80;54.72;;;-2.60;1.00;;;;;;5020031;28;20045;-63
2023/01/21 05:49:28;;;;;;;153.35;53.85;;;-2.70;1.00;;;;;;5018755;28;20060;-63
2023/01/21 05:51:54;;;;;;;157.38;53.38;;;-2.70;1.00;;;;;;5036587;28;20040;-63
2023/01/21 05:54:19;;;;;;;168.77;56.42;;;-2.80;1.00;;;;;;5036624;28;20743;-63
2023/01/21 05:56:45;;;;;;;164.23;56.60;;;-2.70;1.00;;;;;;5036129;28;20802;-63
2023/01/21 05:59:11;;;;;;;162.52;56.50;;;-2.70;1.00;;;;;;5038076;28;20040;-63
2023/01/21 06:01:36;;;;;;;162.35;55.20;;;-2.80;1.00;;;;;;5037906;28;20523;-64
2023/01/21 06:04:02;;;;;;;156.95;54.70;;;-2.90;1.00;;;;;;5037899;28;20882;-64
2023/01/21 06:06:28;;;;;;;170.23;55.97;;;-2.90;1.00;;;;;;5019675;28;20033;-63
2023/01/21 06:08:53;;;;;;;167.13;56.50;;;-2.70;1.00;;;;;;5019283;28;20040;-63
2023/01/21 06:11:19;;;;;;;175.15;58.22;;;-2.60;1.00;;;;;;5020048;28;20541;-64
2023/01/21 06:13:45;;;;;;;160.38;55.90;;;-2.70;1.00;;;;;;5038154;28;20380;-62
2023/01/21 06:16:11;;;;;;;156.82;57.97;;;-2.60;1.00;;;;;;5036348;28;20143;-63
2023/01/21 06:18:36;;;;;;;166.60;58.42;;;-2.70;1.00;;;;;;5002946;28;20510;-65
2023/01/21 06:21:02;;;;;;;175.45;58.60;;;-2.70;1.00;;;;;;5001240;28;20049;-63
2023/01/21 06:23:28;;;;;;;154.02;55.30;;;-2.60;1.00;;;;;;5002389;28;20045;-63
2023/01/21 06:26:01;;;;;;;177.05;64.22;;;-2.70;1.00;;;;;;5036913;28;20407;-64
2023/01/21 06:28:28;;;;;;;161.45;58.50;;;-2.60;1.00;;;;;;5013594;28;20303;-62
2023/01/21 06:30:54;;;;;;;176.77;59.83;;;-2.70;1.00;;;;;;5018750;28;20037;-63
2023/01/21 06:33:20;;;;;;;149.98;57.28;;;-2.80;1.00;;;;;;5001500;28;20404;-63
2023/01/21 06:35:46;;;;;;;161.25;59.72;;;-2.80;1.00;;;;;;5019452;28;20052;-63
2023/01/21 06:38:12;;;;;;;160.40;58.63;;;-2.90;1.00;;;;;;5004461;28;20337;-62
2023/01/21 06:40:38;;;;;;;156.90;57.80;;;-3.00;1.00;;;;;;5020126;28;20124;-62
2023/01/21 06:43:03;;;;;;;151.50;56.97;;;-3.00;1.00;;;;;;5037271;28;20041;-62
2023/01/21 06:45:29;;;;;;;155.70;58.65;;;-2.90;1.00;;;;;;5019042;28;20049;-62
2023/01/21 06:47:55;;;;;;;152.90;57.53;;;-3.00;1.00;;;;;;4998353;28;20083;-64
2023/01/21 06:50:21;;;;;;;150.27;57.67;;;-3.10;1.00;;;;;;5035980;28;20854;-63
2023/01/21 06:52:47;;;;;;;148.25;56.50;;;-2.90;1.00;;;;;;5036983;28;20045;-63
2023/01/21 06:55:14;;;;;;;153.57;57.22;;;-2.80;1.00;;;;;;5019117;28;20036;-63
2023/01/21 06:57:41;;;;;;;173.98;61.05;;;-2.70;1.00;;;;;;5003920;28;20048;-63
2023/01/21 07:00:08;;;;;;;166.60;62.25;;;-2.70;1.00;;;;;;5020632;28;20099;-62
2023/01/21 07:02:34;;;;;;;184.95;66.35;;;-2.50;1.00;;;;;;5021028;28;20037;-63
2023/01/21 07:05:00;;;;;;;188.60;64.35;;;-2.40;1.00;;;;;;5020341;28;20044;-62
2023/01/21 07:07:26;;;;;;;158.00;58.28;;;-2.40;1.00;;;;;;5038062;28;20155;-62
2023/01/21 07:09:51;;;;;;;171.82;61.90;;;-2.60;1.00;;;;;;5018465;28;20392;-62
2023/01/21 07:12:17;;;;;;;169.73;61.80;;;-2.50;1.00;;;;;;5037068;28;20106;-63
2023/01/21 07:14:43;;;;;;;161.75;60.22;;;-2.50;1.00;;;;;;5038269;28;20036;-62
2023/01/21 07:17:10;;;;;;;170.57;61.47;;;-2.60;1.00;;;;;;5037424;28;20072;-62
2023/01/21 07:19:35;;;;;;;188.15;66.18;;;-2.70;1.00;;;;;;5020269;28;20057;-64
2023/01/21 07:22:01;;;;;;;182.05;65.85;;;-2.60;1.00;;;;;;4998547;28;20040;-64
2023/01/21 07:24:27;;;;;;;197.80;73.28;;;-2.40;1.00;;;;;;5014247;28;20037;-65
2023/01/21 07:26:53;;;;;;;189.38;71.13;;;-2.30;1.00;;;;;;5014795;28;20072;-65
2023/01/21 07:29:19;;;;;;;201.15;72.90;;;-2.40;1.00;;;;;;4996202;28;20781;-65
2023/01/21 07:31:44;;;;;;;194.48;71.03;;;-2.10;1.00;;;;;;5012241;28;20628;-65
2023/01/21 07:34:10;;;;;;;197.10;73.95;;;-2.00;1.00;;;;;;4995855;28;20144;-65
2023/01/21 07:36:36;;;;;;;198.13;73.45;;;-2.00;1.00;;;;;;5012445;28;20052;-65
2023/01/21 07:39:02;;;;;;;190.57;73.07;;;-2.00;1.00;;;;;;5015409;28;20210;-64
2023/01/21 07:41:28;;;;;;;184.15;72.20;;;-1.80;1.00;;;;;;5033524;28;20134;-65
2023/01/21 07:43:53;;;;;;;185.20;70.70;;;-1.90;1.00;;;;;;5016555;28;20249;-64
2023/01/21 07:46:20;;;;;;;173.43;69.40;;;-1.80;1.00;;;;;;5016298;28;20051;-65
2023/01/21 07:48:50;;;;;;;169.48;65.30;;;-1.90;1.00;;;;;;5015771;28;20105;-64
2023/01/21 07:51:20;;;;;;;166.63;68.25;;;-1.90;1.00;;;;;;5014039;28;20033;-65
2023/01/21 07:53:46;;;;;;;172.57;68.47;;;-2.00;1.00;;;;;;5014702;28;20037;-64
2023/01/21 07:56:12;;;;;;;173.88;70.85;;;-1.90;1.00;;;;;;5014824;28;20056;-65
2023/01/21 07:58:38;;;;;;;186.23;69.28;;;-1.90;1.00;;;;;;5016148;28;20400;-64
2023/01/21 08:01:08;;;;;;;166.00;70.00;;;-2.10;1.00;;;;;;5016178;28;20406;-63
2023/01/21 08:03:35;;;;;;;166.63;68.25;;;-2.00;1.00;;;;;;5015949;28;20450;-64
2023/01/21 08:06:00;;;;;;;168.60;68.50;;;-2.10;1.00;;;;;;5033101;28;20110;-63
2023/01/21 08:08:26;;;;;;;154.05;66.18;;;-2.00;1.00;;;;;;5012468;28;20033;-62
2023/01/21 08:10:53;;;;;;;170.00;72.40;;;-2.00;1.00;;;;;;5030041;28;20048;-63
2023/01/21 08:13:20;;;;;;;176.75;69.85;;;-2.00;1.00;;;;;;5009688;28;20426;-63
2023/01/21 08:15:52;;;;;;;177.70;69.93;;;-1.80;9.30;;;;;;5026611;28;20095;-65
2023/01/21 08:18:20;;;;;;;177.00;70.93;;;-1.90;15.70;;;;;;5010903;28;20057;-64
2023/01/21 08:20:47;;;;;;;166.80;66.95;;;-1.90;21.70;;;;;;5008572;28;20410;-64
2023/01/21 08:23:13;;;;;;;178.25;72.13;;;-1.80;24.00;;;;;;5010791;28;20257;-64
2023/01/21 08:25:39;;;;;;;166.98;70.45;;;-1.90;32.70;;;;;;4993164;28;20048;-64
2023/01/21 08:28:04;;;;;;;161.82;69.97;;;-1.80;31.70;;;;;;4994889;28;20042;-64
2023/01/21 08:30:31;;;;;;;163.55;67.22;;;-1.80;36.50;;;;;;5010911;28;20163;-64
2023/01/21 08:32:56;;;;;;;161.02;67.13;;;-1.90;49.80;;;;;;5028059;28;20037;-64
2023/01/21 08:35:22;;;;;;;158.80;69.55;;;-2.00;61.20;;;;;;5008636;28;20338;-63
2023/01/21 08:37:48;;;;;;;158.98;67.53;;;-2.00;66.60;;;;;;5027731;28;20041;-63
2023/01/21 08:40:14;;;;;;;158.40;66.78;;;-1.80;66.70;;;;;;5030027;28;20042;-64
2023/01/21 08:42:40;;;;;;;157.57;67.82;;;-2.00;81.80;;;;;;5029201;28;20103;-63
2023/01/21 08:45:06;;;;;;;156.27;67.65;;;-1.80;94.70;;;;;;5008860;28;20033;-64
2023/01/21 08:47:32;;;;;;;174.73;70.47;;;-1.60;99.90;;;;;;5028052;28;20037;-62
2023/01/21 08:49:57;;;;;;;154.27;66.50;;;-1.50;99.90;;;;;;5010073;28;20037;-63
2023/01/21 08:52:23;;;;;;;148.50;64.95;;;-1.50;99.90;;;;;;4997240;28;20067;-63
2023/01/21 08:54:49;;;;;;;156.38;65.80;;;-1.40;99.90;;;;;;5032049;28;20357;-63
2023/01/21 08:57:15;;;;;;;150.05;66.82;;;-1.30;99.90;;;;;;5015741;28;20542;-63
2023/01/21 08:59:40;;;;;;;149.52;64.78;;;-1.30;99.90;;;;;;5033005;28;20041;-63
2023/01/21 09:02:07;;;;;;;136.38;62.17;;;-1.00;99.90;;;;;;5032615;28;20198;-63
2023/01/21 09:04:33;;;;;;;142.57;64.07;;;-1.10;99.90;;;;;;4998139;28;20041;-63
2023/01/21 09:06:59;;;;;;;144.77;64.80;;;-0.90;99.90;;;;;;5014455;28;20044;-63
2023/01/21 09:09:24;;;;;;;139.25;64.13;;;-0.80;99.90;;;;;;5014803;28;20607;-63
2023/01/21 09:11:51;;;;;;;147.23;68.53;;;-0.70;99.90;;;;;;5016605;28;20040;-62
2023/01/21 09:14:18;;;;;;;157.95;70.18;;;-0.70;99.90;;;;;;5037309;28;20053;-63
2023/01/21 09:16:46;;;;;;;143.68;65.43;;;-0.60;99.90;;;;;;5003327;28;20136;-63
2023/01/21 09:19:12;;;;;;;140.98;64.93;;;-0.30;99.90;;;;;;5021999;28;20057;-64
2023/01/21 09:21:37;;;;;;;141.93;65.70;;;-0.20;99.90;;;;;;5006862;28;20055;-64
2023/01/21 09:24:03;;;;;;;125.30;58.47;;;0.00;99.90;;;;;;5023367;28;20060;-64
2023/01/21 09:26:29;;;;;;;140.93;65.85;;;0.00;99.90;;;;;;5020659;28;20080;-64
2023/01/21 09:28:57;;;;;;;116.30;61.22;;;0.00;99.90;;;;;;5018246;28;20214;-63
2023/01/21 09:31:24;;;;;;;124.57;60.05;;;0.00;99.90;;;;;;5022376;28;20072;-64
2023/01/21 09:33:53;;;;;;;122.40;60.67;;;0.10;99.90;;;;;;5040347;28;20103;-64
2023/01/21 09:36:23;;;;;;;132.38;62.20;;;0.10;99.90;;;;;;5018589;28;20061;-64
2023/01/21 09:38:50;;;;;;;126.03;61.60;;;0.00;99.90;;;;;;5019110;28;20128;-64
2023/01/21 09:41:38;;;;;;;144.95;67.28;;;0.00;99.90;;;;;;5002734;28;20088;-62
2023/01/21 09:44:15;;;;;;;126.78;66.78;;;-0.10;99.90;;;;;;5001545;28;20037;-64
2023/01/21 09:46:53;;;;;;;115.85;59.60;;;0.00;99.90;;;;;;5020441;28;20056;-63
2023/01/21 09:49:28;;;;;;;118.55;61.03;;;0.10;99.90;;;;;;5002123;28;20041;-63
2023/01/21 09:52:22;;;;;;;71.18;42.63;;;0.30;99.90;;;;;;5017162;28;20069;-64
2023/01/21 09:54:48;;;;;;;37.95;25.33;;;0.30;99.90;;;;;;5011617;28;20122;-64
2023/01/21 09:57:14;;;;;;;38.00;26.58;;;0.70;99.90;;;;;;4999016;28;20045;-63
2023/01/21 10:00:07;;;;;;;41.95;26.45;;;0.70;99.90;;;;;;5014361;28;20770;-64
2023/01/21 10:02:47;;;;;;;38.10;27.38;;;1.10;99.90;;;;;;4998233;28;20053;-65
2023/01/21 10:05:13;;;;;;;37.25;26.40;;;1.30;99.90;;;;;;5013926;28;20123;-64
2023/01/21 10:08:12;;;;;;;38.30;25.42;;;1.40;99.90;;;;;;5013718;28;20288;-64
2023/01/21 10:10:50;;;;;;;35.70;24.67;;;1.50;99.90;;;;;;5007168;28;20104;-64
2023/01/21 10:13:24;;;;;;;35.13;23.48;;;1.70;99.90;;;;;;4997557;28;20103;-64
2023/01/21 10:16:17;;;;;;;27.88;21.63;;;1.70;99.90;;;;;;5015986;28;20041;-63
2023/01/21 10:18:46;;;;;;;28.35;20.50;;;1.80;99.90;;;;;;5015536;28;20361;-64
2023/01/21 10:21:34;;;;;;;24.02;18.67;;;2.00;99.90;;;;;;5015048;28;20152;-64
2023/01/21 10:24:23;;;;;;;24.92;19.20;;;2.30;99.90;;;;;;5014065;28;20052;-64
2023/01/21 10:26:52;;;;;;;23.05;18.73;;;3.30;99.90;;;;;;5012774;28;20076;-64
2023/01/21 10:29:20;;;;;;;21.30;17.83;;;4.10;99.90;;;;;;5012711;28;20675;-65
2023/01/21 10:31:53;;;;;;;19.10;15.73;;;4.70;99.90;;;;;;5015679;28;20176;-65
2023/01/21 10:34:19;;;;;;;17.92;16.02;;;5.10;27.90;;;;;;5013955;28;20049;-65
2023/01/21 10:37:12;;;;;;;15.93;14.23;;;5.40;99.90;;;;;;5013524;28;20053;-64
2023/01/21 10:40:00;;;;;;;18.13;15.35;;;5.60;36.80;;;;;;5015043;28;20053;-65
2023/01/21 10:42:55;;;;;;;15.13;12.85;;;6.00;1.00;;;;;;4998823;28;20092;-65
2023/01/21 10:45:55;;;;;;;17.02;14.48;;;6.40;1.00;;;;;;5016315;28;20871;-62
2023/01/21 10:48:24;;;;;;;14.15;12.68;;;6.80;99.90;;;;;;4994098;28;20049;-63
2023/01/21 10:50:57;;;;;;;13.98;12.48;;;7.20;1.00;;;;;;5016161;28;20037;-64
2023/01/21 10:53:39;;;;;;;13.85;12.43;;;7.30;99.90;;;;;;5012891;28;20080;-64
2023/01/21 10:56:45;;;;;;;12.98;11.68;;;7.50;99.90;;;;;;5013608;28;20393;-63
2023/01/21 10:59:16;;;;;;;12.07;10.88;;;7.90;99.90;;;;;;4943234;28;20113;-64
2023/01/21 11:01:46;;;;;;;12.68;11.38;;;8.20;1.00;;;;;;5015286;28;20045;-66
2023/01/21 11:04:20;;;;;;;12.63;11.32;;;8.40;99.90;;;;;;5015067;28;20045;-64
2023/01/21 11:07:03;;;;;;;12.30;11.00;;;8.80;1.00;;;;;;4997927;28;20515;-63
2023/01/21 11:09:33;;;;;;;13.57;12.17;;;9.10;99.90;;;;;;5015945;28;20037;-63
2023/01/21 11:11:59;;;;;;;15.38;13.77;;;9.10;99.90;;;;;;5014949;28;20272;-63
2023/01/21 11:14:26;;;;;;;14.95;13.45;;;8.70;1.00;;;;;;5015236;28;20098;-64
2023/01/21 11:16:52;;;;;;;13.80;12.40;;;8.00;1.00;;;;;;5015367;28;20144;-64
2023/01/21 11:19:29;;;;;;;14.07;12.55;;;7.40;1.00;;;;;;4997889;28;20080;-64
2023/01/21 11:21:59;;;;;;;12.73;11.43;;;7.30;1.00;;;;;;5015192;28;20049;-64
2023/01/21 11:24:26;;;;;;;12.77;11.48;;;7.80;99.90;;;;;;5015520;28;20053;-64
2023/01/21 11:26:54;;;;;;;12.10;10.90;;;8.70;99.90;;;;;;4999976;28;20041;-64
2023/01/21 11:29:22;;;;;;;11.15;10.05;;;9.20;1.00;;;;;;5014910;28;20064;-63
2023/01/21 11:31:51;;;;;;;10.98;9.85;;;9.40;1.00;;;;;;5015680;28;20048;-64
2023/01/21 11:34:18;;;;;;;10.00;9.00;;;9.30;99.90;;;;;;5014122;28;20511;-62
2023/01/21 11:37:04;;;;;;;9.68;8.68;;;9.00;99.90;;;;;;5013126;28;20134;-65
2023/01/21 11:39:39;;;;;;;8.70;7.90;;;8.50;99.90;;;;;;5013751;28;20312;-62
2023/01/21 11:42:12;;;;;;;8.75;7.95;;;7.90;99.90;;;;;;5012800;28;20334;-63
2023/01/21 11:45:30;;;;;;;8.45;7.65;;;7.50;99.90;;;;;;4996962;28;20072;-63
2023/01/21 11:47:56;;;;;;;10.13;8.30;;;7.70;99.90;;;;;;4922232;28;20047;-64
2023/01/21 11:50:36;;;;;;;9.50;8.50;;;8.40;99.90;;;;;;5007243;28;20569;-65
2023/01/21 11:53:18;;;;;;;9.00;7.78;;;8.60;99.90;;;;;;5016397;28;20045;-64
2023/01/21 11:55:49;;;;;;;8.55;7.75;;;7.80;99.90;;;;;;5013587;28;20045;-64
2023/01/21 11:58:30;;;;;;;7.60;6.75;;;7.10;99.90;;;;;;4999306;28;20285;-64
2023/01/21 12:00:59;;;;;;;7.40;6.70;;;7.40;99.90;;;;;;5016512;28;20385;-64
2023/01/21 12:03:41;;;;;;;7.15;6.45;;;7.90;99.90;;;;;;5015091;28;20084;-64
2023/01/21 12:06:07;;;;;;;7.70;7.00;;;8.30;99.90;;;;;;5016580;28;20156;-64
2023/01/21 12:08:36;;;;;;;7.53;6.72;;;8.50;99.90;;;;;;5013709;28;20063;-65
2023/01/21 12:11:05;;;;;;;6.85;6.22;;;9.00;99.90;;;;;;5012542;28;20048;-65
2023/01/21 12:13:36;;;;;;;6.30;5.70;;;9.50;99.90;;;;;;5012160;28;20728;-65
2023/01/21 12:16:45;;;;;;;6.07;5.43;;;9.90;99.90;;;;;;5013754;28;20041;-65
2023/01/21 12:19:25;;;;;;;5.13;4.30;;;10.00;97.90;;;;;;4951689;28;20070;-64
2023/01/21 12:22:13;;;;;;;5.60;3.72;;;9.60;1.00;;;;;;5003342;28;20398;-64
2023/01/21 12:24:45;;;;;;;4.47;4.07;;;9.10;1.00;;;;;;5012200;28;20585;-65
2023/01/21 12:27:38;;;;;;;4.22;3.88;;;9.00;91.30;;;;;;5013787;28;20045;-64
2023/01/21 12:30:21;;;;;;;3.75;3.45;;;9.40;11.40;;;;;;5011830;28;20662;-65
2023/01/21 12:33:02;;;;;;;4.18;3.45;;;9.60;1.00;;;;;;5011195;28;20053;-63
2023/01/21 12:35:36;;;;;;;3.88;2.90;;;10.00;1.00;;;;;;5020669;28;20148;-64
2023/01/21 12:38:06;;;;;;;2.72;2.50;;;10.20;45.90;;;;;;5032046;28;20083;-65
2023/01/21 12:41:00;;;;;;;2.92;1.77;;;10.20;1.00;;;;;;5031877;28;20041;-64
2023/01/21 12:43:30;;;;;;;2.42;2.08;;;10.10;99.90;;;;;;5034394;28;20174;-64
2023/01/21 12:46:02;;;;;;;1.50;1.20;;;10.30;1.00;;;;;;5033255;28;20118;-64
2023/01/21 12:48:45;;;;;;;1.85;1.33;;;10.20;1.00;;;;;;5034882;28;20056;-64
2023/01/21 12:51:22;;;;;;;2.03;1.10;;;9.80;99.90;;;;;;5016623;28;20147;-64